Flight Track Log - Related Links

Times and Time Zones

All times are in EDT time to prevent confusion due to time zone crossing. See the N821WW flight status page for this flight to view local times or setup timezone preferences in your user account.

Time Position Orientation Groundspeed Altitude Reporting Facility
EDT Latitude Longitude Course Direction KTS MPH feet Rate Location/Type
Wed 08:33:28 PM 38.3253 -104.4925 21° North 80 92 5,700  Level Denver Center
Wed 08:35:04 PM 38.3639 -104.4872 North 86 99 6,300 380 Climbing Denver Center
Wed 08:36:06 PM 38.3894 -104.4828 North 92 106 6,700 387 Climbing Denver Center
Wed 08:37:08 PM 38.4222 -104.4783 North 100 115 7,100 393 Climbing Denver Center
Wed 08:37:53 PM 38.4436 -104.4764 North 108 124 7,400 387 Climbing Denver Center
Wed 08:38:00 PM 38.4547 -104.4643 21° North  Level FlightAware Approximate
Wed 08:39:12 PM 38.4861 -104.4708 North 110 127 7,900  Level Denver Center
Wed 08:40:14 PM 38.5164 -104.4667 North 113 130 8,200 339 Climbing Denver Center
Wed 08:41:16 PM 38.5472 -104.4636 North 114 131 8,600 387 Climbing Denver Center
Wed 08:42:18 PM 38.5831 -104.4583 North 115 132 9,000 339 Climbing Denver Center
Wed 08:43:20 PM 38.6133 -104.4558 North 115 132 9,300 339 Climbing Denver Center
Wed 08:44:22 PM 38.6475 -104.4525 North 112 129 9,700 339 Climbing Denver Center
Wed 08:45:24 PM 38.6761 -104.4494 North 109 125 10,000 155 Climbing Denver Center
Wed 08:46:18 PM 38.7103 -104.4458 North 130 150 10,000  Level Denver Center
Wed 08:47:28 PM 38.7492 -104.4403 North 131 151 10,000  Level Denver Center
Wed 08:48:30 PM 38.7883 -104.4350 North 128 147 10,000  Level Denver Center
Wed 08:49:32 PM 38.8222 -104.4314 North 128 147 10,000  Level Denver Center
Wed 08:50:34 PM 38.8611 -104.4283 North 127 146 10,000  Level Denver Center
Wed 08:51:36 PM 38.8917 -104.4508 330° Northwest 128 147 10,000  Level Denver Center
Wed 08:52:38 PM 38.9289 -104.4747 333° Northwest 132 152 10,000  Level Denver Center
Wed 08:53:53 PM 38.9628 -104.5069 324° Northwest 127 146 10,000  Level Denver Center
Wed 08:54:54 PM 38.9906 -104.5403 317° Northwest 136 157 10,000  Level Denver Center
Wed 08:55:56 PM 39.0186 -104.5719 319° Northwest 133 153 10,000  Level Denver Center
Wed 08:56:58 PM 39.0444 -104.5994 320° Northwest 123 142 10,000 -48 Level Denver Center
Wed 08:58:00 PM 39.0675 -104.6303 314° West 119 137 9,900 -48 Descending Denver Center
Wed 08:59:02 PM 39.0989 -104.6608 323° Northwest 117 135 9,900  Level Denver Center
Wed 09:00:04 PM 39.1253 -104.6831 327° Northwest 113 130 9,900  Level Denver Center
Wed 09:01:06 PM 39.1514 -104.7072 324° Northwest 116 133 9,900 48 Level Denver Center
Wed 09:02:08 PM 39.1847 -104.7181 346° North 116 133 10,000 -48 Climbing Denver Center
Wed 09:03:10 PM 39.2161 -104.7308 342° North 118 136 9,800 -387 Descending Denver Center
Wed 09:04:12 PM 39.2567 -104.7425 347° North 137 158 9,200 -435 Descending Denver Center
Wed 09:05:14 PM 39.2944 -104.7578 343° North 142 163 8,900 -97 Descending Denver Center
Wed 09:06:16 PM 39.3281 -104.7653 350° North 127 146 9,000 48 Climbing Denver Center
Wed 09:07:18 PM 39.3653 -104.7633 North 124 143 9,000  Level Denver Center
Wed 09:08:20 PM 39.3989 -104.7631 360° North 122 140 9,000  Level Denver Center
Wed 09:09:22 PM 39.4169 -104.8017 301° West 129 148 9,000 -435 Level Denver Center
Wed 09:10:24 PM 39.4294 -104.8483 289° West 140 161 8,100 -532 Descending Denver Center
Wed 09:11:26 PM 39.4464 -104.8956 295° West 144 166 7,900 -48 Descending Denver Center
Wed 09:12:28 PM 39.4814 -104.8994 355° North 122 140 8,000 49 Climbing Denver Center
Wed 09:13:29 PM 39.5119 -104.8992 360° North 114 131 8,000 -49 Level Denver Center
Wed 09:14:31 PM 39.5467 -104.9000 359° North 117 135 7,900 -435 Descending Denver Center
Wed 09:15:33 PM 39.5794 -104.8981 North 120 138 7,100 -774 Descending Denver Center
Wed 09:16:35 PM 39.6028 -104.8761 36° Northeast 108 124 6,300 -532 Descending Denver Center
Wed 09:17:37 PM 39.5944 -104.8522 114° Southeast 80 92 6,000 -290 Descending Denver Center
Wed 09:19:00 PM 39.5667 -104.8333 235° Southwest  Level FlightAware Approximate
Wed 09:26:00 PM 39.5701 -104.8493 235° Southwest  Level Estimated
Wed 09:27:00 PM 39.5701 -104.8493 235° Southwest  Level Estimated
Wed 09:28:00 PM 39.5701 -104.8493 235° Southwest  Level Estimated

Login

Don't have an account? Register now (free) for customized features, flight alerts, and more!